sensor_id;sensor_type;location;lat;lon;timestamp;temperature;humidity
13251;DHT22;6692;50.710;7.180;2023-02-14T00:00:34;4.80;99.90
13251;DHT22;6692;50.710;7.180;2023-02-14T00:02:34;4.80;99.90
13251;DHT22;6692;50.710;7.180;2023-02-14T00:04:35;4.70;99.90
13251;DHT22;6692;50.710;7.180;2023-02-14T00:06:36;4.70;99.90
13251;DHT22;6692;50.710;7.180;2023-02-14T00:08:36;4.70;99.90
13251;DHT22;6692;50.710;7.180;2023-02-14T00:10:38;4.70;99.90
13251;DHT22;6692;50.710;7.180;2023-02-14T00:12:38;4.70;99.90
13251;DHT22;6692;50.710;7.180;2023-02-14T00:14:39;4.70;99.90
13251;DHT22;6692;50.710;7.180;2023-02-14T00:16:46;4.70;99.90
13251;DHT22;6692;50.710;7.180;2023-02-14T00:18:46;4.70;99.90
13251;DHT22;6692;50.710;7.180;2023-02-14T00:20:58;4.50;99.90
13251;DHT22;6692;50.710;7.180;2023-02-14T00:22:55;4.50;99.90
13251;DHT22;6692;50.710;7.180;2023-02-14T00:24:56;4.50;99.90
13251;DHT22;6692;50.710;7.180;2023-02-14T00:26:57;4.40;99.90
13251;DHT22;6692;50.710;7.180;2023-02-14T00:28:57;4.40;99.90
13251;DHT22;6692;50.710;7.180;2023-02-14T00:31:00;4.40;99.90
13251;DHT22;6692;50.710;7.180;2023-02-14T00:32:59;4.40;99.90
13251;DHT22;6692;50.710;7.180;2023-02-14T00:35:01;4.30;99.90
13251;DHT22;6692;50.710;7.180;2023-02-14T00:37:02;4.30;99.90
13251;DHT22;6692;50.710;7.180;2023-02-14T00:39:03;4.30;99.90
13251;DHT22;6692;50.710;7.180;2023-02-14T00:41:04;4.20;99.90
13251;DHT22;6692;50.710;7.180;2023-02-14T00:43:05;4.20;99.90
13251;DHT22;6692;50.710;7.180;2023-02-14T00:45:07;4.20;99.90
13251;DHT22;6692;50.710;7.180;2023-02-14T00:47:09;4.10;99.90
13251;DHT22;6692;50.710;7.180;2023-02-14T00:49:09;4.10;99.90
13251;DHT22;6692;50.710;7.180;2023-02-14T00:51:10;4.10;99.90
13251;DHT22;6692;50.710;7.180;2023-02-14T00:53:11;4.10;99.90
13251;DHT22;6692;50.710;7.180;2023-02-14T00:55:12;4.10;99.90
13251;DHT22;6692;50.710;7.180;2023-02-14T00:57:13;4.10;99.90
13251;DHT22;6692;50.710;7.180;2023-02-14T00:59:14;4.10;99.90
13251;DHT22;6692;50.710;7.180;2023-02-14T01:01:15;4.10;99.90
13251;DHT22;6692;50.710;7.180;2023-02-14T01:03:16;4.00;99.90
13251;DHT22;6692;50.710;7.180;2023-02-14T01:05:17;4.00;99.90
13251;DHT22;6692;50.710;7.180;2023-02-14T01:07:18;4.00;99.90
13251;DHT22;6692;50.710;7.180;2023-02-14T01:09:18;4.00;99.90
13251;DHT22;6692;50.710;7.180;2023-02-14T01:11:20;3.90;99.90
13251;DHT22;6692;50.710;7.180;2023-02-14T01:13:20;3.90;99.90
13251;DHT22;6692;50.710;7.180;2023-02-14T01:15:20;3.90;99.90
13251;DHT22;6692;50.710;7.180;2023-02-14T01:17:22;4.00;99.90
13251;DHT22;6692;50.710;7.180;2023-02-14T01:19:22;3.90;99.90
13251;DHT22;6692;50.710;7.180;2023-02-14T01:21:25;3.90;99.90
13251;DHT22;6692;50.710;7.180;2023-02-14T01:23:25;3.90;99.90
13251;DHT22;6692;50.710;7.180;2023-02-14T01:25:25;3.90;99.90
13251;DHT22;6692;50.710;7.180;2023-02-14T01:27:26;3.90;99.90
13251;DHT22;6692;50.710;7.180;2023-02-14T01:29:28;3.80;99.90
13251;DHT22;6692;50.710;7.180;2023-02-14T01:31:28;3.80;99.90
13251;DHT22;6692;50.710;7.180;2023-02-14T01:33:28;3.80;99.90
13251;DHT22;6692;50.710;7.180;2023-02-14T01:35:29;3.80;99.90
13251;DHT22;6692;50.710;7.180;2023-02-14T01:37:29;3.70;99.90
13251;DHT22;6692;50.710;7.180;2023-02-14T01:39:31;3.60;99.90
13251;DHT22;6692;50.710;7.180;2023-02-14T01:41:32;3.70;99.90
13251;DHT22;6692;50.710;7.180;2023-02-14T01:43:48;3.60;99.90
13251;DHT22;6692;50.710;7.180;2023-02-14T01:45:33;3.60;99.90
13251;DHT22;6692;50.710;7.180;2023-02-14T01:47:35;3.60;99.90
13251;DHT22;6692;50.710;7.180;2023-02-14T01:49:35;3.60;99.90
13251;DHT22;6692;50.710;7.180;2023-02-14T01:51:35;3.60;99.90
13251;DHT22;6692;50.710;7.180;2023-02-14T01:53:35;3.60;99.90
13251;DHT22;6692;50.710;7.180;2023-02-14T01:55:38;3.70;99.90
13251;DHT22;6692;50.710;7.180;2023-02-14T01:57:42;3.70;99.90
13251;DHT22;6692;50.710;7.180;2023-02-14T01:59:42;3.70;99.90
13251;DHT22;6692;50.710;7.180;2023-02-14T02:01:42;3.70;99.90
13251;DHT22;6692;50.710;7.180;2023-02-14T02:03:44;3.70;99.90
13251;DHT22;6692;50.710;7.180;2023-02-14T02:05:45;3.70;99.90
13251;DHT22;6692;50.710;7.180;2023-02-14T02:07:44;3.60;99.90
13251;DHT22;6692;50.710;7.180;2023-02-14T02:09:48;3.60;99.90
13251;DHT22;6692;50.710;7.180;2023-02-14T02:11:46;3.60;99.90
13251;DHT22;6692;50.710;7.180;2023-02-14T02:13:47;3.60;99.90
13251;DHT22;6692;50.710;7.180;2023-02-14T02:15:57;3.60;99.90
13251;DHT22;6692;50.710;7.180;2023-02-14T02:17:59;3.60;99.90
13251;DHT22;6692;50.710;7.180;2023-02-14T02:20:18;3.60;99.90
13251;DHT22;6692;50.710;7.180;2023-02-14T02:22:51;3.60;99.90
13251;DHT22;6692;50.710;7.180;2023-02-14T02:24:53;3.60;99.90
13251;DHT22;6692;50.710;7.180;2023-02-14T02:27:16;3.50;99.90
13251;DHT22;6692;50.710;7.180;2023-02-14T02:29:36;3.40;99.90
13251;DHT22;6692;50.710;7.180;2023-02-14T02:34:27;3.40;99.90
13251;DHT22;6692;50.710;7.180;2023-02-14T02:36:26;3.40;99.90
13251;DHT22;6692;50.710;7.180;2023-02-14T02:38:28;3.40;99.90
13251;DHT22;6692;50.710;7.180;2023-02-14T02:42:43;3.40;99.90
13251;DHT22;6692;50.710;7.180;2023-02-14T02:44:42;3.40;99.90
13251;DHT22;6692;50.710;7.180;2023-02-14T02:46:45;3.40;99.90
13251;DHT22;6692;50.710;7.180;2023-02-14T02:49:08;3.40;99.90
13251;DHT22;6692;50.710;7.180;2023-02-14T02:51:06;3.30;99.90
13251;DHT22;6692;50.710;7.180;2023-02-14T02:53:20;3.30;99.90
13251;DHT22;6692;50.710;7.180;2023-02-14T02:55:27;3.30;99.90
13251;DHT22;6692;50.710;7.180;2023-02-14T02:57:26;3.30;99.90
13251;DHT22;6692;50.710;7.180;2023-02-14T02:59:29;3.30;99.90
13251;DHT22;6692;50.710;7.180;2023-02-14T03:01:30;3.30;99.90
13251;DHT22;6692;50.710;7.180;2023-02-14T03:03:29;3.20;99.90
13251;DHT22;6692;50.710;7.180;2023-02-14T03:05:36;3.20;99.90
13251;DHT22;6692;50.710;7.180;2023-02-14T03:07:38;3.10;99.90
13251;DHT22;6692;50.710;7.180;2023-02-14T03:09:49;3.10;99.90
13251;DHT22;6692;50.710;7.180;2023-02-14T03:12:21;3.10;99.90
13251;DHT22;6692;50.710;7.180;2023-02-14T03:14:18;3.10;99.90
13251;DHT22;6692;50.710;7.180;2023-02-14T03:16:34;3.00;99.90
13251;DHT22;6692;50.710;7.180;2023-02-14T03:18:43;3.00;99.90
13251;DHT22;6692;50.710;7.180;2023-02-14T03:22:59;3.00;99.90
13251;DHT22;6692;50.710;7.180;2023-02-14T03:25:03;2.90;99.90
13251;DHT22;6692;50.710;7.180;2023-02-14T03:27:07;2.90;99.90
13251;DHT22;6692;50.710;7.180;2023-02-14T03:29:12;2.90;99.90
13251;DHT22;6692;50.710;7.180;2023-02-14T03:31:19;2.90;99.90
13251;DHT22;6692;50.710;7.180;2023-02-14T03:33:17;2.90;99.90
13251;DHT22;6692;50.710;7.180;2023-02-14T03:35:20;2.90;99.90
13251;DHT22;6692;50.710;7.180;2023-02-14T03:37:20;2.90;99.90
13251;DHT22;6692;50.710;7.180;2023-02-14T03:39:23;2.90;99.90
13251;DHT22;6692;50.710;7.180;2023-02-14T03:41:24;2.90;99.90
13251;DHT22;6692;50.710;7.180;2023-02-14T03:43:26;2.80;99.90
13251;DHT22;6692;50.710;7.180;2023-02-14T03:45:28;2.90;99.90
13251;DHT22;6692;50.710;7.180;2023-02-14T03:47:27;2.90;99.90
13251;DHT22;6692;50.710;7.180;2023-02-14T03:49:28;2.90;99.90
13251;DHT22;6692;50.710;7.180;2023-02-14T03:51:27;2.90;99.90
13251;DHT22;6692;50.710;7.180;2023-02-14T03:53:29;2.90;99.90
13251;DHT22;6692;50.710;7.180;2023-02-14T03:55:33;2.90;99.90
13251;DHT22;6692;50.710;7.180;2023-02-14T03:57:41;2.90;99.90
13251;DHT22;6692;50.710;7.180;2023-02-14T03:59:38;2.90;99.90
13251;DHT22;6692;50.710;7.180;2023-02-14T04:01:43;2.90;99.90
13251;DHT22;6692;50.710;7.180;2023-02-14T04:03:41;2.90;99.90
13251;DHT22;6692;50.710;7.180;2023-02-14T04:05:42;2.90;99.90
13251;DHT22;6692;50.710;7.180;2023-02-14T04:07:48;2.90;99.90
13251;DHT22;6692;50.710;7.180;2023-02-14T04:09:46;2.90;99.90
13251;DHT22;6692;50.710;7.180;2023-02-14T04:11:47;2.90;99.90
13251;DHT22;6692;50.710;7.180;2023-02-14T04:13:47;2.90;99.90
13251;DHT22;6692;50.710;7.180;2023-02-14T04:15:48;2.90;99.90
13251;DHT22;6692;50.710;7.180;2023-02-14T04:17:49;2.80;99.90
13251;DHT22;6692;50.710;7.180;2023-02-14T04:19:55;2.80;99.90
13251;DHT22;6692;50.710;7.180;2023-02-14T04:21:56;2.80;99.90
13251;DHT22;6692;50.710;7.180;2023-02-14T04:23:57;2.70;99.90
13251;DHT22;6692;50.710;7.180;2023-02-14T04:25:58;2.70;99.90
13251;DHT22;6692;50.710;7.180;2023-02-14T04:27:59;2.80;99.90
13251;DHT22;6692;50.710;7.180;2023-02-14T04:30:00;2.80;99.90
13251;DHT22;6692;50.710;7.180;2023-02-14T04:32:01;2.80;99.90
13251;DHT22;6692;50.710;7.180;2023-02-14T04:34:01;2.80;99.90
13251;DHT22;6692;50.710;7.180;2023-02-14T04:36:02;2.80;99.90
13251;DHT22;6692;50.710;7.180;2023-02-14T04:38:04;2.70;99.90
13251;DHT22;6692;50.710;7.180;2023-02-14T04:40:06;2.70;99.90
13251;DHT22;6692;50.710;7.180;2023-02-14T04:42:07;2.70;99.90
13251;DHT22;6692;50.710;7.180;2023-02-14T04:44:08;2.70;99.90
13251;DHT22;6692;50.710;7.180;2023-02-14T04:46:08;2.70;99.90
13251;DHT22;6692;50.710;7.180;2023-02-14T04:48:10;2.60;99.90
13251;DHT22;6692;50.710;7.180;2023-02-14T04:50:11;2.60;99.90
13251;DHT22;6692;50.710;7.180;2023-02-14T04:52:12;2.60;99.90
13251;DHT22;6692;50.710;7.180;2023-02-14T04:54:12;2.60;99.90
13251;DHT22;6692;50.710;7.180;2023-02-14T04:56:14;2.60;99.90
13251;DHT22;6692;50.710;7.180;2023-02-14T04:58:15;2.60;99.90
13251;DHT22;6692;50.710;7.180;2023-02-14T05:00:16;2.60;99.90
13251;DHT22;6692;50.710;7.180;2023-02-14T05:02:17;2.60;99.90
13251;DHT22;6692;50.710;7.180;2023-02-14T05:04:18;2.60;99.90
13251;DHT22;6692;50.710;7.180;2023-02-14T05:06:19;2.50;99.90
13251;DHT22;6692;50.710;7.180;2023-02-14T05:08:20;2.50;99.90
13251;DHT22;6692;50.710;7.180;2023-02-14T05:10:21;2.50;99.90
13251;DHT22;6692;50.710;7.180;2023-02-14T05:12:21;2.50;99.90
13251;DHT22;6692;50.710;7.180;2023-02-14T05:14:22;2.50;99.90
13251;DHT22;6692;50.710;7.180;2023-02-14T05:16:23;2.50;99.90
13251;DHT22;6692;50.710;7.180;2023-02-14T05:18:23;2.40;99.90
13251;DHT22;6692;50.710;7.180;2023-02-14T05:20:24;2.40;99.90
13251;DHT22;6692;50.710;7.180;2023-02-14T05:22:25;2.40;99.90
13251;DHT22;6692;50.710;7.180;2023-02-14T05:24:26;2.40;99.90
13251;DHT22;6692;50.710;7.180;2023-02-14T05:26:27;2.40;99.90
13251;DHT22;6692;50.710;7.180;2023-02-14T05:28:27;2.40;99.90
13251;DHT22;6692;50.710;7.180;2023-02-14T05:30:28;2.40;99.90
13251;DHT22;6692;50.710;7.180;2023-02-14T05:32:29;2.40;99.90
13251;DHT22;6692;50.710;7.180;2023-02-14T05:34:29;2.40;99.90
13251;DHT22;6692;50.710;7.180;2023-02-14T05:36:30;2.40;99.90
13251;DHT22;6692;50.710;7.180;2023-02-14T05:38:30;2.40;99.90
13251;DHT22;6692;50.710;7.180;2023-02-14T05:40:31;2.40;99.90
13251;DHT22;6692;50.710;7.180;2023-02-14T05:42:32;2.40;99.90
13251;DHT22;6692;50.710;7.180;2023-02-14T05:44:33;2.40;99.90
13251;DHT22;6692;50.710;7.180;2023-02-14T05:46:33;2.40;99.90
13251;DHT22;6692;50.710;7.180;2023-02-14T05:48:34;2.40;99.90
13251;DHT22;6692;50.710;7.180;2023-02-14T05:50:35;2.40;99.90
13251;DHT22;6692;50.710;7.180;2023-02-14T05:52:36;2.40;99.90
13251;DHT22;6692;50.710;7.180;2023-02-14T05:54:37;2.40;99.90
13251;DHT22;6692;50.710;7.180;2023-02-14T05:56:37;2.40;99.90
13251;DHT22;6692;50.710;7.180;2023-02-14T05:58:38;2.40;99.90
13251;DHT22;6692;50.710;7.180;2023-02-14T06:00:39;2.40;99.90
13251;DHT22;6692;50.710;7.180;2023-02-14T06:02:39;2.40;99.90
13251;DHT22;6692;50.710;7.180;2023-02-14T06:04:40;2.40;99.90
13251;DHT22;6692;50.710;7.180;2023-02-14T06:06:40;2.40;99.90
13251;DHT22;6692;50.710;7.180;2023-02-14T06:08:41;2.40;99.90
13251;DHT22;6692;50.710;7.180;2023-02-14T06:10:42;2.40;99.90
13251;DHT22;6692;50.710;7.180;2023-02-14T06:12:43;2.40;99.90
13251;DHT22;6692;50.710;7.180;2023-02-14T06:14:43;2.40;99.90
13251;DHT22;6692;50.710;7.180;2023-02-14T06:16:44;2.40;99.90
13251;DHT22;6692;50.710;7.180;2023-02-14T06:18:44;2.40;99.90
13251;DHT22;6692;50.710;7.180;2023-02-14T06:20:45;2.40;99.90
13251;DHT22;6692;50.710;7.180;2023-02-14T06:22:46;2.40;99.90
13251;DHT22;6692;50.710;7.180;2023-02-14T06:24:46;2.40;99.90
13251;DHT22;6692;50.710;7.180;2023-02-14T06:26:47;2.40;99.90
13251;DHT22;6692;50.710;7.180;2023-02-14T06:28:51;2.40;99.90
13251;DHT22;6692;50.710;7.180;2023-02-14T06:30:48;2.30;99.90
13251;DHT22;6692;50.710;7.180;2023-02-14T06:32:49;2.30;99.90
13251;DHT22;6692;50.710;7.180;2023-02-14T06:34:50;2.30;99.90
13251;DHT22;6692;50.710;7.180;2023-02-14T06:36:51;2.30;99.90
13251;DHT22;6692;50.710;7.180;2023-02-14T06:38:51;2.30;99.90
13251;DHT22;6692;50.710;7.180;2023-02-14T06:40:52;2.30;99.90
13251;DHT22;6692;50.710;7.180;2023-02-14T06:42:53;2.30;99.90
13251;DHT22;6692;50.710;7.180;2023-02-14T06:44:55;2.30;99.90
13251;DHT22;6692;50.710;7.180;2023-02-14T06:46:56;2.30;99.90
13251;DHT22;6692;50.710;7.180;2023-02-14T06:48:58;2.30;99.90
13251;DHT22;6692;50.710;7.180;2023-02-14T06:50:58;2.30;99.90
13251;DHT22;6692;50.710;7.180;2023-02-14T06:52:59;2.30;99.90
13251;DHT22;6692;50.710;7.180;2023-02-14T06:55:00;2.30;99.90
13251;DHT22;6692;50.710;7.180;2023-02-14T06:57:00;2.30;99.90
13251;DHT22;6692;50.710;7.180;2023-02-14T06:59:02;2.30;99.90
13251;DHT22;6692;50.710;7.180;2023-02-14T07:01:02;2.30;99.90
13251;DHT22;6692;50.710;7.180;2023-02-14T07:03:03;2.30;99.90
13251;DHT22;6692;50.710;7.180;2023-02-14T07:05:04;2.40;99.90
13251;DHT22;6692;50.710;7.180;2023-02-14T07:07:05;2.40;99.90
13251;DHT22;6692;50.710;7.180;2023-02-14T07:09:05;2.40;99.90
13251;DHT22;6692;50.710;7.180;2023-02-14T07:11:06;2.40;99.90
13251;DHT22;6692;50.710;7.180;2023-02-14T07:13:07;2.40;99.90
13251;DHT22;6692;50.710;7.180;2023-02-14T07:15:09;2.50;99.90
13251;DHT22;6692;50.710;7.180;2023-02-14T07:17:09;2.40;99.90
13251;DHT22;6692;50.710;7.180;2023-02-14T07:19:09;2.40;99.90
13251;DHT22;6692;50.710;7.180;2023-02-14T07:21:10;2.50;99.90
13251;DHT22;6692;50.710;7.180;2023-02-14T07:23:11;2.50;99.90
13251;DHT22;6692;50.710;7.180;2023-02-14T07:25:12;2.50;99.90
13251;DHT22;6692;50.710;7.180;2023-02-14T07:27:12;2.50;99.90
13251;DHT22;6692;50.710;7.180;2023-02-14T07:29:13;2.50;99.90
13251;DHT22;6692;50.710;7.180;2023-02-14T07:31:14;2.50;99.90
13251;DHT22;6692;50.710;7.180;2023-02-14T07:33:14;2.60;99.90
13251;DHT22;6692;50.710;7.180;2023-02-14T07:35:15;2.60;99.90
13251;DHT22;6692;50.710;7.180;2023-02-14T07:37:15;2.60;99.90
13251;DHT22;6692;50.710;7.180;2023-02-14T07:39:17;2.60;99.90
13251;DHT22;6692;50.710;7.180;2023-02-14T07:41:18;2.60;99.90
13251;DHT22;6692;50.710;7.180;2023-02-14T07:43:19;2.70;99.90
13251;DHT22;6692;50.710;7.180;2023-02-14T07:45:20;2.70;99.90
13251;DHT22;6692;50.710;7.180;2023-02-14T07:47:20;2.70;99.90
13251;DHT22;6692;50.710;7.180;2023-02-14T07:49:21;2.70;99.90
13251;DHT22;6692;50.710;7.180;2023-02-14T07:51:22;2.70;99.90
13251;DHT22;6692;50.710;7.180;2023-02-14T07:53:23;2.70;99.90
13251;DHT22;6692;50.710;7.180;2023-02-14T07:55:24;2.70;99.90
13251;DHT22;6692;50.710;7.180;2023-02-14T07:57:24;2.80;99.90
13251;DHT22;6692;50.710;7.180;2023-02-14T07:59:25;2.80;99.90
13251;DHT22;6692;50.710;7.180;2023-02-14T08:01:26;2.80;99.90
13251;DHT22;6692;50.710;7.180;2023-02-14T08:03:26;3.00;99.90
13251;DHT22;6692;50.710;7.180;2023-02-14T08:05:27;3.00;99.90
13251;DHT22;6692;50.710;7.180;2023-02-14T08:07:28;3.10;99.90
13251;DHT22;6692;50.710;7.180;2023-02-14T08:09:29;3.10;99.90
13251;DHT22;6692;50.710;7.180;2023-02-14T08:11:30;3.20;99.90
13251;DHT22;6692;50.710;7.180;2023-02-14T08:13:37;3.20;99.90
13251;DHT22;6692;50.710;7.180;2023-02-14T08:15:38;3.30;99.90
13251;DHT22;6692;50.710;7.180;2023-02-14T08:17:45;3.30;99.90
13251;DHT22;6692;50.710;7.180;2023-02-14T08:19:46;3.40;99.90
13251;DHT22;6692;50.710;7.180;2023-02-14T08:21:46;3.50;99.90
13251;DHT22;6692;50.710;7.180;2023-02-14T08:23:47;3.60;99.90
13251;DHT22;6692;50.710;7.180;2023-02-14T08:25:48;3.60;99.90
13251;DHT22;6692;50.710;7.180;2023-02-14T08:27:48;3.70;99.90
13251;DHT22;6692;50.710;7.180;2023-02-14T08:29:49;3.70;99.90
13251;DHT22;6692;50.710;7.180;2023-02-14T08:31:50;3.80;99.90
13251;DHT22;6692;50.710;7.180;2023-02-14T08:33:51;3.90;99.90
13251;DHT22;6692;50.710;7.180;2023-02-14T08:35:52;3.90;99.90
13251;DHT22;6692;50.710;7.180;2023-02-14T08:37:52;4.00;99.90
13251;DHT22;6692;50.710;7.180;2023-02-14T08:39:53;4.10;99.90
13251;DHT22;6692;50.710;7.180;2023-02-14T08:41:54;4.10;99.90
13251;DHT22;6692;50.710;7.180;2023-02-14T08:43:54;4.20;99.90
13251;DHT22;6692;50.710;7.180;2023-02-14T08:45:55;4.30;99.90
13251;DHT22;6692;50.710;7.180;2023-02-14T08:48:03;4.40;99.90
13251;DHT22;6692;50.710;7.180;2023-02-14T08:50:04;4.60;99.90
13251;DHT22;6692;50.710;7.180;2023-02-14T08:52:05;4.60;99.90
13251;DHT22;6692;50.710;7.180;2023-02-14T08:54:06;4.60;99.90
13251;DHT22;6692;50.710;7.180;2023-02-14T08:56:08;4.70;99.90
13251;DHT22;6692;50.710;7.180;2023-02-14T08:58:08;4.80;99.90
13251;DHT22;6692;50.710;7.180;2023-02-14T09:00:09;4.80;99.90
13251;DHT22;6692;50.710;7.180;2023-02-14T09:02:11;4.90;99.90
13251;DHT22;6692;50.710;7.180;2023-02-14T09:04:12;4.90;99.90
13251;DHT22;6692;50.710;7.180;2023-02-14T09:06:14;4.90;99.90
13251;DHT22;6692;50.710;7.180;2023-02-14T09:08:14;5.00;99.90
13251;DHT22;6692;50.710;7.180;2023-02-14T09:10:15;5.00;99.90
13251;DHT22;6692;50.710;7.180;2023-02-14T09:12:16;5.10;99.90
13251;DHT22;6692;50.710;7.180;2023-02-14T09:14:16;5.20;99.90
13251;DHT22;6692;50.710;7.180;2023-02-14T09:16:17;5.30;99.90
13251;DHT22;6692;50.710;7.180;2023-02-14T09:18:18;5.50;99.90
13251;DHT22;6692;50.710;7.180;2023-02-14T09:20:19;5.50;99.90
13251;DHT22;6692;50.710;7.180;2023-02-14T09:22:20;5.50;99.90
13251;DHT22;6692;50.710;7.180;2023-02-14T09:24:21;5.60;99.90
13251;DHT22;6692;50.710;7.180;2023-02-14T09:26:21;5.70;99.90
13251;DHT22;6692;50.710;7.180;2023-02-14T09:28:22;5.70;99.90
13251;DHT22;6692;50.710;7.180;2023-02-14T09:30:23;5.80;99.90
13251;DHT22;6692;50.710;7.180;2023-02-14T09:32:23;5.90;99.90
13251;DHT22;6692;50.710;7.180;2023-02-14T09:34:24;5.90;99.90
13251;DHT22;6692;50.710;7.180;2023-02-14T09:36:31;6.00;99.90
13251;DHT22;6692;50.710;7.180;2023-02-14T09:38:37;6.00;99.90
13251;DHT22;6692;50.710;7.180;2023-02-14T09:40:38;6.10;99.90
13251;DHT22;6692;50.710;7.180;2023-02-14T09:42:58;6.20;99.90
13251;DHT22;6692;50.710;7.180;2023-02-14T09:45:00;6.20;99.90
13251;DHT22;6692;50.710;7.180;2023-02-14T09:47:04;6.20;99.90
13251;DHT22;6692;50.710;7.180;2023-02-14T09:49:01;6.30;99.90
13251;DHT22;6692;50.710;7.180;2023-02-14T09:51:04;6.30;99.90
13251;DHT22;6692;50.710;7.180;2023-02-14T09:53:07;6.40;99.90
13251;DHT22;6692;50.710;7.180;2023-02-14T09:55:08;6.40;99.90
13251;DHT22;6692;50.710;7.180;2023-02-14T09:57:18;6.40;99.90
13251;DHT22;6692;50.710;7.180;2023-02-14T09:59:40;6.60;99.90
13251;DHT22;6692;50.710;7.180;2023-02-14T10:01:46;6.50;99.90
13251;DHT22;6692;50.710;7.180;2023-02-14T10:03:53;6.60;99.90
13251;DHT22;6692;50.710;7.180;2023-02-14T10:06:00;6.70;99.90
13251;DHT22;6692;50.710;7.180;2023-02-14T10:10:13;6.80;99.90
13251;DHT22;6692;50.710;7.180;2023-02-14T10:12:16;6.80;99.90
13251;DHT22;6692;50.710;7.180;2023-02-14T10:14:15;6.90;99.90
13251;DHT22;6692;50.710;7.180;2023-02-14T10:16:21;6.90;99.90
13251;DHT22;6692;50.710;7.180;2023-02-14T10:18:24;7.00;99.90
13251;DHT22;6692;50.710;7.180;2023-02-14T10:20:31;7.00;99.90
13251;DHT22;6692;50.710;7.180;2023-02-14T10:22:39;7.10;99.90
13251;DHT22;6692;50.710;7.180;2023-02-14T10:24:48;7.10;99.90
13251;DHT22;6692;50.710;7.180;2023-02-14T10:26:50;7.20;99.90
13251;DHT22;6692;50.710;7.180;2023-02-14T10:28:51;7.30;99.90
13251;DHT22;6692;50.710;7.180;2023-02-14T10:30:55;7.30;99.90
13251;DHT22;6692;50.710;7.180;2023-02-14T10:33:00;7.40;99.90
13251;DHT22;6692;50.710;7.180;2023-02-14T10:34:59;7.40;99.90
13251;DHT22;6692;50.710;7.180;2023-02-14T10:40:52;7.40;99.90
13251;DHT22;6692;50.710;7.180;2023-02-14T10:42:20;7.50;99.90
13251;DHT22;6692;50.710;7.180;2023-02-14T10:44:29;7.50;99.90
13251;DHT22;6692;50.710;7.180;2023-02-14T10:46:35;7.50;99.90
13251;DHT22;6692;50.710;7.180;2023-02-14T10:48:45;7.60;99.90
13251;DHT22;6692;50.710;7.180;2023-02-14T10:50:49;7.60;99.90
13251;DHT22;6692;50.710;7.180;2023-02-14T10:52:51;7.60;99.90
13251;DHT22;6692;50.710;7.180;2023-02-14T10:54:53;7.70;99.90
13251;DHT22;6692;50.710;7.180;2023-02-14T10:56:54;7.60;99.90
13251;DHT22;6692;50.710;7.180;2023-02-14T10:58:54;7.70;99.90
13251;DHT22;6692;50.710;7.180;2023-02-14T11:00:58;7.80;99.90
13251;DHT22;6692;50.710;7.180;2023-02-14T11:02:57;7.80;99.90
13251;DHT22;6692;50.710;7.180;2023-02-14T11:04:58;7.80;99.90
13251;DHT22;6692;50.710;7.180;2023-02-14T11:06:58;7.90;99.90
13251;DHT22;6692;50.710;7.180;2023-02-14T11:08:59;7.90;99.90
13251;DHT22;6692;50.710;7.180;2023-02-14T11:11:09;7.90;99.90
13251;DHT22;6692;50.710;7.180;2023-02-14T11:13:26;8.00;99.90
13251;DHT22;6692;50.710;7.180;2023-02-14T11:15:30;8.00;99.90
13251;DHT22;6692;50.710;7.180;2023-02-14T11:17:30;8.10;99.90
13251;DHT22;6692;50.710;7.180;2023-02-14T11:19:31;8.10;99.90
13251;DHT22;6692;50.710;7.180;2023-02-14T11:21:35;8.10;99.90
13251;DHT22;6692;50.710;7.180;2023-02-14T11:23:33;8.10;99.90
13251;DHT22;6692;50.710;7.180;2023-02-14T11:25:32;8.20;99.90
13251;DHT22;6692;50.710;7.180;2023-02-14T11:27:34;8.30;99.90
13251;DHT22;6692;50.710;7.180;2023-02-14T11:29:41;8.20;99.90
13251;DHT22;6692;50.710;7.180;2023-02-14T11:31:41;8.30;99.90
13251;DHT22;6692;50.710;7.180;2023-02-14T11:33:42;8.40;99.90
13251;DHT22;6692;50.710;7.180;2023-02-14T11:35:42;8.40;99.90
13251;DHT22;6692;50.710;7.180;2023-02-14T11:37:45;8.40;99.90
13251;DHT22;6692;50.710;7.180;2023-02-14T11:39:44;8.50;99.90
13251;DHT22;6692;50.710;7.180;2023-02-14T11:41:48;8.60;99.90
13251;DHT22;6692;50.710;7.180;2023-02-14T11:43:48;8.60;99.90
13251;DHT22;6692;50.710;7.180;2023-02-14T11:45:49;8.60;99.90
13251;DHT22;6692;50.710;7.180;2023-02-14T11:47:50;8.60;99.90
13251;DHT22;6692;50.710;7.180;2023-02-14T11:49:54;8.60;99.90
13251;DHT22;6692;50.710;7.180;2023-02-14T11:51:55;8.60;99.90
13251;DHT22;6692;50.710;7.180;2023-02-14T11:53:55;8.60;99.90
13251;DHT22;6692;50.710;7.180;2023-02-14T11:55:56;8.60;99.90
13251;DHT22;6692;50.710;7.180;2023-02-14T11:57:56;8.70;99.90
13251;DHT22;6692;50.710;7.180;2023-02-14T11:59:57;8.60;99.90
13251;DHT22;6692;50.710;7.180;2023-02-14T12:01:59;8.70;99.90
13251;DHT22;6692;50.710;7.180;2023-02-14T12:03:59;8.70;99.90
13251;DHT22;6692;50.710;7.180;2023-02-14T12:05:59;8.70;99.90
13251;DHT22;6692;50.710;7.180;2023-02-14T12:08:01;8.80;99.90
13251;DHT22;6692;50.710;7.180;2023-02-14T12:10:17;8.70;99.90
13251;DHT22;6692;50.710;7.180;2023-02-14T12:12:18;8.80;99.90
13251;DHT22;6692;50.710;7.180;2023-02-14T12:14:20;8.80;99.90
13251;DHT22;6692;50.710;7.180;2023-02-14T12:16:25;8.80;99.90
13251;DHT22;6692;50.710;7.180;2023-02-14T12:19:01;8.90;99.90
13251;DHT22;6692;50.710;7.180;2023-02-14T12:20:48;8.90;99.90
13251;DHT22;6692;50.710;7.180;2023-02-14T12:22:45;8.90;99.90
13251;DHT22;6692;50.710;7.180;2023-02-14T12:24:53;9.00;99.90
13251;DHT22;6692;50.710;7.180;2023-02-14T12:26:56;9.10;99.90
13251;DHT22;6692;50.710;7.180;2023-02-14T12:29:08;9.00;99.90
13251;DHT22;6692;50.710;7.180;2023-02-14T12:31:09;9.10;99.90
13251;DHT22;6692;50.710;7.180;2023-02-14T12:33:24;9.10;99.90
13251;DHT22;6692;50.710;7.180;2023-02-14T12:35:39;9.10;99.90
13251;DHT22;6692;50.710;7.180;2023-02-14T12:37:49;9.10;99.90
13251;DHT22;6692;50.710;7.180;2023-02-14T12:39:58;9.10;99.90
13251;DHT22;6692;50.710;7.180;2023-02-14T12:42:22;9.10;99.90
13251;DHT22;6692;50.710;7.180;2023-02-14T12:44:26;9.10;99.90
13251;DHT22;6692;50.710;7.180;2023-02-14T12:46:31;9.20;99.90
13251;DHT22;6692;50.710;7.180;2023-02-14T12:53:25;9.30;99.90
13251;DHT22;6692;50.710;7.180;2023-02-14T12:57:56;9.40;99.90
13251;DHT22;6692;50.710;7.180;2023-02-14T13:00:08;9.60;99.90
13251;DHT22;6692;50.710;7.180;2023-02-14T13:06:37;11.30;99.90
13251;DHT22;6692;50.710;7.180;2023-02-14T13:08:45;11.20;99.90
13251;DHT22;6692;50.710;7.180;2023-02-14T13:10:48;12.20;99.90
13251;DHT22;6692;50.710;7.180;2023-02-14T13:12:48;13.00;99.90
13251;DHT22;6692;50.710;7.180;2023-02-14T13:15:00;13.70;99.90
13251;DHT22;6692;50.710;7.180;2023-02-14T13:16:59;14.20;99.90
13251;DHT22;6692;50.710;7.180;2023-02-14T13:19:14;15.10;99.90
13251;DHT22;6692;50.710;7.180;2023-02-14T13:21:16;15.50;99.90
13251;DHT22;6692;50.710;7.180;2023-02-14T13:23:19;15.50;99.90
13251;DHT22;6692;50.710;7.180;2023-02-14T13:25:22;15.80;99.90
13251;DHT22;6692;50.710;7.180;2023-02-14T13:27:21;16.00;99.90
13251;DHT22;6692;50.710;7.180;2023-02-14T13:29:21;16.10;99.90
13251;DHT22;6692;50.710;7.180;2023-02-14T13:31:21;16.30;99.90
13251;DHT22;6692;50.710;7.180;2023-02-14T13:33:25;16.40;99.90
13251;DHT22;6692;50.710;7.180;2023-02-14T13:35:25;16.60;99.90
13251;DHT22;6692;50.710;7.180;2023-02-14T13:37:25;16.70;99.90
13251;DHT22;6692;50.710;7.180;2023-02-14T13:39:28;16.80;99.90
13251;DHT22;6692;50.710;7.180;2023-02-14T13:41:27;16.80;99.90